sensor_id;sensor_type;location;lat;lon;timestamp;temperature;humidity
336;DHT22;156;48.738;9.228;2022-11-15T00:02:15;9.70;1.00
336;DHT22;156;48.738;9.228;2022-11-15T00:04:41;9.70;1.00
336;DHT22;156;48.738;9.228;2022-11-15T00:07:08;9.60;1.00
336;DHT22;156;48.738;9.228;2022-11-15T00:09:35;9.50;1.00
336;DHT22;156;48.738;9.228;2022-11-15T00:12:04;9.30;1.00
336;DHT22;156;48.738;9.228;2022-11-15T00:14:31;9.40;1.00
336;DHT22;156;48.738;9.228;2022-11-15T00:16:58;9.30;1.00
336;DHT22;156;48.738;9.228;2022-11-15T00:19:25;9.30;1.00
336;DHT22;156;48.738;9.228;2022-11-15T00:21:52;9.30;1.00
336;DHT22;156;48.738;9.228;2022-11-15T00:24:19;9.30;1.00
336;DHT22;156;48.738;9.228;2022-11-15T00:26:45;9.30;1.00
336;DHT22;156;48.738;9.228;2022-11-15T00:29:14;9.30;1.00
336;DHT22;156;48.738;9.228;2022-11-15T00:31:40;9.40;1.00
336;DHT22;156;48.738;9.228;2022-11-15T00:34:08;9.50;1.00
336;DHT22;156;48.738;9.228;2022-11-15T00:36:35;9.50;1.00
336;DHT22;156;48.738;9.228;2022-11-15T00:39:03;9.60;1.00
336;DHT22;156;48.738;9.228;2022-11-15T00:41:31;9.60;1.00
336;DHT22;156;48.738;9.228;2022-11-15T00:43:58;9.70;1.00
336;DHT22;156;48.738;9.228;2022-11-15T00:46:26;9.80;1.00
336;DHT22;156;48.738;9.228;2022-11-15T00:48:53;9.80;1.00
336;DHT22;156;48.738;9.228;2022-11-15T00:51:20;9.80;1.00
336;DHT22;156;48.738;9.228;2022-11-15T00:53:47;9.80;1.00
336;DHT22;156;48.738;9.228;2022-11-15T00:56:13;9.80;1.00
336;DHT22;156;48.738;9.228;2022-11-15T00:58:40;9.80;1.00
336;DHT22;156;48.738;9.228;2022-11-15T01:01:08;9.80;1.00
336;DHT22;156;48.738;9.228;2022-11-15T01:03:38;9.80;1.00
336;DHT22;156;48.738;9.228;2022-11-15T01:06:06;9.80;1.00
336;DHT22;156;48.738;9.228;2022-11-15T01:08:33;9.90;1.00
336;DHT22;156;48.738;9.228;2022-11-15T01:11:01;9.90;1.00
336;DHT22;156;48.738;9.228;2022-11-15T01:13:30;9.90;1.00
336;DHT22;156;48.738;9.228;2022-11-15T01:15:57;9.90;1.00
336;DHT22;156;48.738;9.228;2022-11-15T01:18:24;9.80;1.00
336;DHT22;156;48.738;9.228;2022-11-15T01:20:53;9.80;1.00
336;DHT22;156;48.738;9.228;2022-11-15T01:23:19;9.80;1.00
336;DHT22;156;48.738;9.228;2022-11-15T01:25:46;9.70;1.00
336;DHT22;156;48.738;9.228;2022-11-15T01:28:13;9.70;1.00
336;DHT22;156;48.738;9.228;2022-11-15T01:30:40;9.60;1.00
336;DHT22;156;48.738;9.228;2022-11-15T01:33:07;9.60;1.00
336;DHT22;156;48.738;9.228;2022-11-15T01:35:38;9.60;1.00
336;DHT22;156;48.738;9.228;2022-11-15T01:38:07;9.50;1.00
336;DHT22;156;48.738;9.228;2022-11-15T01:40:34;9.30;1.00
336;DHT22;156;48.738;9.228;2022-11-15T01:43:19;9.30;1.00
336;DHT22;156;48.738;9.228;2022-11-15T01:45:50;9.20;1.00
336;DHT22;156;48.738;9.228;2022-11-15T01:48:18;9.20;1.00
336;DHT22;156;48.738;9.228;2022-11-15T01:50:45;9.10;1.00
336;DHT22;156;48.738;9.228;2022-11-15T01:53:14;9.00;1.00
336;DHT22;156;48.738;9.228;2022-11-15T01:55:41;9.00;1.00
336;DHT22;156;48.738;9.228;2022-11-15T01:58:08;8.90;1.00
336;DHT22;156;48.738;9.228;2022-11-15T02:00:35;9.00;1.00
336;DHT22;156;48.738;9.228;2022-11-15T02:03:02;9.00;1.00
336;DHT22;156;48.738;9.228;2022-11-15T02:05:30;9.00;1.00
336;DHT22;156;48.738;9.228;2022-11-15T02:07:59;9.00;1.00
336;DHT22;156;48.738;9.228;2022-11-15T02:10:28;9.00;1.00
336;DHT22;156;48.738;9.228;2022-11-15T02:12:56;9.00;1.00
336;DHT22;156;48.738;9.228;2022-11-15T02:15:25;9.00;1.00
336;DHT22;156;48.738;9.228;2022-11-15T02:18:03;9.00;1.00
336;DHT22;156;48.738;9.228;2022-11-15T02:20:58;9.00;1.00
336;DHT22;156;48.738;9.228;2022-11-15T02:27:11;9.20;1.00
336;DHT22;156;48.738;9.228;2022-11-15T02:30:03;9.10;1.00
336;DHT22;156;48.738;9.228;2022-11-15T02:32:36;9.00;1.00
336;DHT22;156;48.738;9.228;2022-11-15T02:35:13;9.10;1.00
336;DHT22;156;48.738;9.228;2022-11-15T02:37:45;9.10;1.00
336;DHT22;156;48.738;9.228;2022-11-15T02:40:20;9.10;1.00
336;DHT22;156;48.738;9.228;2022-11-15T02:42:54;9.00;1.00
336;DHT22;156;48.738;9.228;2022-11-15T02:45:43;9.00;1.00
336;DHT22;156;48.738;9.228;2022-11-15T02:48:12;9.10;1.00
336;DHT22;156;48.738;9.228;2022-11-15T02:50:40;9.30;1.00
336;DHT22;156;48.738;9.228;2022-11-15T02:53:08;9.30;1.00
336;DHT22;156;48.738;9.228;2022-11-15T02:55:37;9.30;1.00
336;DHT22;156;48.738;9.228;2022-11-15T02:58:23;9.30;1.00
336;DHT22;156;48.738;9.228;2022-11-15T03:01:00;9.30;1.00
336;DHT22;156;48.738;9.228;2022-11-15T03:03:46;9.40;1.00
336;DHT22;156;48.738;9.228;2022-11-15T03:06:23;9.40;1.00
336;DHT22;156;48.738;9.228;2022-11-15T03:08:58;9.30;1.00
336;DHT22;156;48.738;9.228;2022-11-15T03:11:29;9.20;1.00
336;DHT22;156;48.738;9.228;2022-11-15T03:14:04;9.10;1.00
336;DHT22;156;48.738;9.228;2022-11-15T03:16:37;9.10;1.00
336;DHT22;156;48.738;9.228;2022-11-15T03:19:12;9.00;1.00
336;DHT22;156;48.738;9.228;2022-11-15T03:21:40;9.00;1.00
336;DHT22;156;48.738;9.228;2022-11-15T03:24:08;8.90;1.00
336;DHT22;156;48.738;9.228;2022-11-15T03:26:38;9.00;1.00
336;DHT22;156;48.738;9.228;2022-11-15T03:29:09;9.00;1.00
336;DHT22;156;48.738;9.228;2022-11-15T03:31:41;9.00;1.00
336;DHT22;156;48.738;9.228;2022-11-15T03:34:21;9.00;1.00
336;DHT22;156;48.738;9.228;2022-11-15T03:36:51;8.90;1.00
336;DHT22;156;48.738;9.228;2022-11-15T03:39:19;9.00;1.00
336;DHT22;156;48.738;9.228;2022-11-15T03:41:49;8.90;1.00
336;DHT22;156;48.738;9.228;2022-11-15T03:44:26;9.00;1.00
336;DHT22;156;48.738;9.228;2022-11-15T03:46:59;9.00;1.00
336;DHT22;156;48.738;9.228;2022-11-15T03:49:33;8.90;1.00
336;DHT22;156;48.738;9.228;2022-11-15T03:52:01;8.90;1.00
336;DHT22;156;48.738;9.228;2022-11-15T03:54:29;8.90;1.00
336;DHT22;156;48.738;9.228;2022-11-15T03:56:56;8.90;1.00
336;DHT22;156;48.738;9.228;2022-11-15T03:59:23;8.90;1.00
336;DHT22;156;48.738;9.228;2022-11-15T04:01:50;8.80;1.00
336;DHT22;156;48.738;9.228;2022-11-15T04:04:16;8.80;1.00
336;DHT22;156;48.738;9.228;2022-11-15T04:06:45;8.90;1.00
336;DHT22;156;48.738;9.228;2022-11-15T04:09:12;8.90;1.00
336;DHT22;156;48.738;9.228;2022-11-15T04:11:39;8.80;1.00
336;DHT22;156;48.738;9.228;2022-11-15T04:14:06;8.70;1.00
336;DHT22;156;48.738;9.228;2022-11-15T04:16:32;8.60;1.00
336;DHT22;156;48.738;9.228;2022-11-15T04:18:59;8.60;1.00
336;DHT22;156;48.738;9.228;2022-11-15T04:21:45;8.60;4.00
336;DHT22;156;48.738;9.228;2022-11-15T04:24:29;8.60;4.70
336;DHT22;156;48.738;9.228;2022-11-15T04:26:56;8.50;5.10
336;DHT22;156;48.738;9.228;2022-11-15T04:29:23;8.50;6.30
336;DHT22;156;48.738;9.228;2022-11-15T04:32:03;8.50;8.20
336;DHT22;156;48.738;9.228;2022-11-15T04:34:31;8.50;7.80
336;DHT22;156;48.738;9.228;2022-11-15T04:36:59;8.50;8.00
336;DHT22;156;48.738;9.228;2022-11-15T04:39:38;8.40;8.10
336;DHT22;156;48.738;9.228;2022-11-15T04:42:05;8.40;9.10
336;DHT22;156;48.738;9.228;2022-11-15T04:44:33;8.40;11.40
336;DHT22;156;48.738;9.228;2022-11-15T04:46:59;8.40;10.70
336;DHT22;156;48.738;9.228;2022-11-15T04:49:26;8.40;10.60
336;DHT22;156;48.738;9.228;2022-11-15T04:51:53;8.40;11.00
336;DHT22;156;48.738;9.228;2022-11-15T04:54:22;8.30;11.20
336;DHT22;156;48.738;9.228;2022-11-15T04:56:49;8.30;12.90
336;DHT22;156;48.738;9.228;2022-11-15T04:59:15;8.30;13.30
336;DHT22;156;48.738;9.228;2022-11-15T05:01:42;8.30;13.40
336;DHT22;156;48.738;9.228;2022-11-15T05:04:09;8.30;13.30
336;DHT22;156;48.738;9.228;2022-11-15T05:06:48;8.40;13.30
336;DHT22;156;48.738;9.228;2022-11-15T05:09:15;8.40;11.90
336;DHT22;156;48.738;9.228;2022-11-15T05:11:44;8.60;8.80
336;DHT22;156;48.738;9.228;2022-11-15T05:14:11;8.70;3.70
336;DHT22;156;48.738;9.228;2022-11-15T05:16:38;8.80;1.50
336;DHT22;156;48.738;9.228;2022-11-15T05:19:05;9.00;1.00
336;DHT22;156;48.738;9.228;2022-11-15T05:21:33;9.00;1.00
336;DHT22;156;48.738;9.228;2022-11-15T05:24:00;9.00;1.00
336;DHT22;156;48.738;9.228;2022-11-15T05:26:27;9.00;1.00
336;DHT22;156;48.738;9.228;2022-11-15T05:28:57;9.00;1.00
336;DHT22;156;48.738;9.228;2022-11-15T05:31:25;9.10;1.00
336;DHT22;156;48.738;9.228;2022-11-15T05:33:52;9.10;1.00
336;DHT22;156;48.738;9.228;2022-11-15T05:36:27;9.10;1.00
336;DHT22;156;48.738;9.228;2022-11-15T05:38:56;9.10;1.00
336;DHT22;156;48.738;9.228;2022-11-15T05:41:26;8.80;1.00
336;DHT22;156;48.738;9.228;2022-11-15T05:43:59;8.80;1.00
336;DHT22;156;48.738;9.228;2022-11-15T05:46:28;8.70;1.00
336;DHT22;156;48.738;9.228;2022-11-15T05:48:56;8.70;1.10
336;DHT22;156;48.738;9.228;2022-11-15T05:51:24;8.50;2.10
336;DHT22;156;48.738;9.228;2022-11-15T05:53:51;8.40;8.80
336;DHT22;156;48.738;9.228;2022-11-15T05:56:19;8.30;11.60
336;DHT22;156;48.738;9.228;2022-11-15T05:58:46;8.20;17.30
336;DHT22;156;48.738;9.228;2022-11-15T06:01:14;8.30;17.60
336;DHT22;156;48.738;9.228;2022-11-15T06:03:41;8.30;18.70
336;DHT22;156;48.738;9.228;2022-11-15T06:06:08;8.20;17.30
336;DHT22;156;48.738;9.228;2022-11-15T06:08:35;8.20;20.90
336;DHT22;156;48.738;9.228;2022-11-15T06:11:05;8.20;21.30
336;DHT22;156;48.738;9.228;2022-11-15T06:13:33;8.20;22.10
336;DHT22;156;48.738;9.228;2022-11-15T06:16:00;8.60;23.90
336;DHT22;156;48.738;9.228;2022-11-15T06:18:31;8.10;24.00
336;DHT22;156;48.738;9.228;2022-11-15T06:20:59;8.10;25.30
336;DHT22;156;48.738;9.228;2022-11-15T06:23:26;8.10;25.60
336;DHT22;156;48.738;9.228;2022-11-15T06:25:53;8.00;29.00
336;DHT22;156;48.738;9.228;2022-11-15T06:28:23;8.00;31.50
336;DHT22;156;48.738;9.228;2022-11-15T06:30:50;8.00;30.00
336;DHT22;156;48.738;9.228;2022-11-15T06:33:17;8.00;30.00
336;DHT22;156;48.738;9.228;2022-11-15T06:35:45;7.90;30.50
336;DHT22;156;48.738;9.228;2022-11-15T06:38:12;8.00;33.60
336;DHT22;156;48.738;9.228;2022-11-15T06:40:39;8.00;34.60
336;DHT22;156;48.738;9.228;2022-11-15T06:43:06;7.90;35.60
336;DHT22;156;48.738;9.228;2022-11-15T06:45:33;7.90;34.90
336;DHT22;156;48.738;9.228;2022-11-15T06:48:00;7.90;34.50
336;DHT22;156;48.738;9.228;2022-11-15T06:50:27;7.80;35.30
336;DHT22;156;48.738;9.228;2022-11-15T06:53:00;7.80;37.10
336;DHT22;156;48.738;9.228;2022-11-15T06:55:27;7.80;36.40
336;DHT22;156;48.738;9.228;2022-11-15T06:57:54;7.80;36.50
336;DHT22;156;48.738;9.228;2022-11-15T07:00:22;7.80;38.30
336;DHT22;156;48.738;9.228;2022-11-15T07:02:49;7.80;39.50
336;DHT22;156;48.738;9.228;2022-11-15T07:05:16;7.80;39.70
336;DHT22;156;48.738;9.228;2022-11-15T07:07:51;7.80;40.40
336;DHT22;156;48.738;9.228;2022-11-15T07:10:20;8.00;45.60
336;DHT22;156;48.738;9.228;2022-11-15T07:12:49;8.00;43.30
336;DHT22;156;48.738;9.228;2022-11-15T07:15:16;8.10;40.80
336;DHT22;156;48.738;9.228;2022-11-15T07:17:43;8.10;38.50
336;DHT22;156;48.738;9.228;2022-11-15T07:20:11;8.10;36.90
336;DHT22;156;48.738;9.228;2022-11-15T07:22:39;8.20;35.00
336;DHT22;156;48.738;9.228;2022-11-15T07:25:07;8.20;34.60
336;DHT22;156;48.738;9.228;2022-11-15T07:27:35;8.20;33.30
336;DHT22;156;48.738;9.228;2022-11-15T07:30:03;8.30;30.90
336;DHT22;156;48.738;9.228;2022-11-15T07:32:30;8.40;29.70
336;DHT22;156;48.738;9.228;2022-11-15T07:34:57;8.50;27.60
336;DHT22;156;48.738;9.228;2022-11-15T07:37:24;8.60;25.60
336;DHT22;156;48.738;9.228;2022-11-15T07:39:51;8.70;21.70
336;DHT22;156;48.738;9.228;2022-11-15T07:42:18;8.80;17.30
336;DHT22;156;48.738;9.228;2022-11-15T07:45:04;8.90;10.90
336;DHT22;156;48.738;9.228;2022-11-15T07:47:31;9.00;7.00
336;DHT22;156;48.738;9.228;2022-11-15T07:49:58;9.10;5.40
336;DHT22;156;48.738;9.228;2022-11-15T07:52:25;9.10;6.00
336;DHT22;156;48.738;9.228;2022-11-15T07:54:52;9.20;3.00
336;DHT22;156;48.738;9.228;2022-11-15T07:57:19;9.30;3.40
336;DHT22;156;48.738;9.228;2022-11-15T07:59:46;9.40;1.00
336;DHT22;156;48.738;9.228;2022-11-15T08:02:14;9.50;1.00
336;DHT22;156;48.738;9.228;2022-11-15T08:04:43;9.50;1.00
336;DHT22;156;48.738;9.228;2022-11-15T08:07:10;9.70;1.00
336;DHT22;156;48.738;9.228;2022-11-15T08:09:37;9.80;1.00
336;DHT22;156;48.738;9.228;2022-11-15T08:12:06;9.90;1.00
336;DHT22;156;48.738;9.228;2022-11-15T08:14:33;10.00;1.00
336;DHT22;156;48.738;9.228;2022-11-15T08:17:00;10.10;1.00
336;DHT22;156;48.738;9.228;2022-11-15T08:19:28;10.10;1.00
336;DHT22;156;48.738;9.228;2022-11-15T08:21:55;10.00;1.00
336;DHT22;156;48.738;9.228;2022-11-15T08:24:22;10.00;1.00
336;DHT22;156;48.738;9.228;2022-11-15T08:26:48;9.90;1.00
336;DHT22;156;48.738;9.228;2022-11-15T08:29:15;9.90;1.00
336;DHT22;156;48.738;9.228;2022-11-15T08:31:42;9.90;1.00
336;DHT22;156;48.738;9.228;2022-11-15T08:34:09;9.90;1.00
336;DHT22;156;48.738;9.228;2022-11-15T08:36:38;9.80;1.00
336;DHT22;156;48.738;9.228;2022-11-15T08:39:05;9.90;1.00
336;DHT22;156;48.738;9.228;2022-11-15T08:41:33;9.90;1.00
336;DHT22;156;48.738;9.228;2022-11-15T08:44:01;10.00;1.00
336;DHT22;156;48.738;9.228;2022-11-15T08:46:28;10.00;1.00
336;DHT22;156;48.738;9.228;2022-11-15T08:48:55;10.10;1.00
336;DHT22;156;48.738;9.228;2022-11-15T08:51:22;10.10;1.00
336;DHT22;156;48.738;9.228;2022-11-15T08:53:50;10.20;1.00
336;DHT22;156;48.738;9.228;2022-11-15T08:56:17;10.30;1.00
336;DHT22;156;48.738;9.228;2022-11-15T08:58:47;10.40;1.00
336;DHT22;156;48.738;9.228;2022-11-15T09:01:16;10.50;1.00
336;DHT22;156;48.738;9.228;2022-11-15T09:03:43;10.50;1.00
336;DHT22;156;48.738;9.228;2022-11-15T09:06:10;10.60;1.00
336;DHT22;156;48.738;9.228;2022-11-15T09:08:37;10.60;1.00
336;DHT22;156;48.738;9.228;2022-11-15T09:11:06;10.70;1.00
336;DHT22;156;48.738;9.228;2022-11-15T09:13:33;10.80;1.00
336;DHT22;156;48.738;9.228;2022-11-15T09:16:06;10.90;1.00
336;DHT22;156;48.738;9.228;2022-11-15T09:18:33;11.10;1.00
336;DHT22;156;48.738;9.228;2022-11-15T09:21:01;11.20;1.00
336;DHT22;156;48.738;9.228;2022-11-15T09:23:30;11.30;1.00
336;DHT22;156;48.738;9.228;2022-11-15T09:26:00;11.40;1.00
336;DHT22;156;48.738;9.228;2022-11-15T09:28:30;11.30;1.00
336;DHT22;156;48.738;9.228;2022-11-15T09:30:58;11.30;1.00
336;DHT22;156;48.738;9.228;2022-11-15T09:33:26;11.30;1.00
336;DHT22;156;48.738;9.228;2022-11-15T09:35:53;11.40;1.00
336;DHT22;156;48.738;9.228;2022-11-15T09:38:21;11.60;1.00
336;DHT22;156;48.738;9.228;2022-11-15T09:40:52;11.60;1.00
336;DHT22;156;48.738;9.228;2022-11-15T09:43:34;11.70;1.00
336;DHT22;156;48.738;9.228;2022-11-15T09:46:15;11.80;1.00
336;DHT22;156;48.738;9.228;2022-11-15T09:48:49;11.90;1.00
336;DHT22;156;48.738;9.228;2022-11-15T09:51:24;11.90;1.00
336;DHT22;156;48.738;9.228;2022-11-15T09:53:57;12.00;1.00
336;DHT22;156;48.738;9.228;2022-11-15T09:56:27;12.10;1.00
336;DHT22;156;48.738;9.228;2022-11-15T09:59:05;12.20;1.00
336;DHT22;156;48.738;9.228;2022-11-15T10:01:40;12.30;1.00
336;DHT22;156;48.738;9.228;2022-11-15T10:04:09;12.40;1.00
336;DHT22;156;48.738;9.228;2022-11-15T10:06:40;12.50;1.00
336;DHT22;156;48.738;9.228;2022-11-15T10:09:15;12.70;1.00
336;DHT22;156;48.738;9.228;2022-11-15T10:11:43;12.70;1.00
336;DHT22;156;48.738;9.228;2022-11-15T10:14:14;12.70;1.00
336;DHT22;156;48.738;9.228;2022-11-15T10:19:54;12.80;1.00
336;DHT22;156;48.738;9.228;2022-11-15T10:22:28;12.80;1.00
336;DHT22;156;48.738;9.228;2022-11-15T10:25:16;12.90;1.00
336;DHT22;156;48.738;9.228;2022-11-15T10:27:47;12.90;1.00
336;DHT22;156;48.738;9.228;2022-11-15T10:30:19;12.90;1.00
336;DHT22;156;48.738;9.228;2022-11-15T10:32:47;12.90;1.00
336;DHT22;156;48.738;9.228;2022-11-15T10:35:21;12.90;1.00
336;DHT22;156;48.738;9.228;2022-11-15T10:37:48;12.90;1.00
336;DHT22;156;48.738;9.228;2022-11-15T10:40:19;12.90;1.00
336;DHT22;156;48.738;9.228;2022-11-15T10:42:46;13.00;1.00
336;DHT22;156;48.738;9.228;2022-11-15T10:45:25;13.10;1.00
336;DHT22;156;48.738;9.228;2022-11-15T10:47:53;13.20;1.00
336;DHT22;156;48.738;9.228;2022-11-15T10:50:32;13.30;1.00
336;DHT22;156;48.738;9.228;2022-11-15T10:53:01;13.30;1.00
336;DHT22;156;48.738;9.228;2022-11-15T10:55:30;13.50;1.00
336;DHT22;156;48.738;9.228;2022-11-15T10:58:05;13.30;1.00
336;DHT22;156;48.738;9.228;2022-11-15T11:00:36;13.40;1.00
336;DHT22;156;48.738;9.228;2022-11-15T11:03:08;13.40;1.00
336;DHT22;156;48.738;9.228;2022-11-15T11:05:47;13.50;1.00
336;DHT22;156;48.738;9.228;2022-11-15T11:08:22;13.40;1.00
336;DHT22;156;48.738;9.228;2022-11-15T11:10:52;13.40;1.00
336;DHT22;156;48.738;9.228;2022-11-15T11:13:22;13.30;1.00
336;DHT22;156;48.738;9.228;2022-11-15T11:15:55;13.20;1.00
336;DHT22;156;48.738;9.228;2022-11-15T11:18:27;13.20;1.00
336;DHT22;156;48.738;9.228;2022-11-15T11:20:59;13.20;1.00
336;DHT22;156;48.738;9.228;2022-11-15T11:23:39;13.10;1.00
336;DHT22;156;48.738;9.228;2022-11-15T11:26:19;13.20;1.00
336;DHT22;156;48.738;9.228;2022-11-15T11:28:56;13.00;1.00
336;DHT22;156;48.738;9.228;2022-11-15T11:31:34;13.10;1.00
336;DHT22;156;48.738;9.228;2022-11-15T11:34:13;13.20;1.00
336;DHT22;156;48.738;9.228;2022-11-15T11:36:48;13.20;1.00
336;DHT22;156;48.738;9.228;2022-11-15T11:39:26;13.20;1.00
336;DHT22;156;48.738;9.228;2022-11-15T11:42:03;13.20;1.00
336;DHT22;156;48.738;9.228;2022-11-15T11:44:44;13.30;1.00
336;DHT22;156;48.738;9.228;2022-11-15T11:47:21;13.30;1.00
336;DHT22;156;48.738;9.228;2022-11-15T11:49:52;13.50;1.00
336;DHT22;156;48.738;9.228;2022-11-15T11:52:24;13.60;1.00
336;DHT22;156;48.738;9.228;2022-11-15T11:54:59;13.70;1.00
336;DHT22;156;48.738;9.228;2022-11-15T11:57:34;13.70;1.00
336;DHT22;156;48.738;9.228;2022-11-15T12:00:14;13.80;1.00
336;DHT22;156;48.738;9.228;2022-11-15T12:02:49;13.80;1.00
336;DHT22;156;48.738;9.228;2022-11-15T12:05:22;13.80;1.00
336;DHT22;156;48.738;9.228;2022-11-15T12:07:51;13.90;1.00
336;DHT22;156;48.738;9.228;2022-11-15T12:10:23;14.00;1.00
336;DHT22;156;48.738;9.228;2022-11-15T12:12:56;14.00;1.00
336;DHT22;156;48.738;9.228;2022-11-15T12:15:27;14.00;1.00
336;DHT22;156;48.738;9.228;2022-11-15T12:18:00;13.90;1.00
336;DHT22;156;48.738;9.228;2022-11-15T12:20:30;14.00;1.00
336;DHT22;156;48.738;9.228;2022-11-15T12:23:01;13.90;1.00
336;DHT22;156;48.738;9.228;2022-11-15T12:25:32;13.90;1.00
336;DHT22;156;48.738;9.228;2022-11-15T12:28:06;13.80;1.00
336;DHT22;156;48.738;9.228;2022-11-15T12:30:43;13.60;1.00
336;DHT22;156;48.738;9.228;2022-11-15T12:33:35;13.50;1.00
336;DHT22;156;48.738;9.228;2022-11-15T12:36:04;13.60;1.00
336;DHT22;156;48.738;9.228;2022-11-15T12:38:54;13.60;1.00
336;DHT22;156;48.738;9.228;2022-11-15T12:41:22;13.60;1.00
336;DHT22;156;48.738;9.228;2022-11-15T12:43:49;13.60;1.00
336;DHT22;156;48.738;9.228;2022-11-15T12:49:44;13.60;1.00
336;DHT22;156;48.738;9.228;2022-11-15T12:52:11;13.50;1.00
336;DHT22;156;48.738;9.228;2022-11-15T12:54:58;13.50;1.00
336;DHT22;156;48.738;9.228;2022-11-15T12:57:48;13.40;1.00
336;DHT22;156;48.738;9.228;2022-11-15T13:00:43;13.40;1.00
336;DHT22;156;48.738;9.228;2022-11-15T13:03:27;13.30;1.00
336;DHT22;156;48.738;9.228;2022-11-15T13:08:53;13.40;1.00
336;DHT22;156;48.738;9.228;2022-11-15T13:11:51;13.40;1.00
336;DHT22;156;48.738;9.228;2022-11-15T13:14:41;13.30;1.00
336;DHT22;156;48.738;9.228;2022-11-15T13:17:33;13.40;1.00
336;DHT22;156;48.738;9.228;2022-11-15T13:20:11;13.30;1.00
336;DHT22;156;48.738;9.228;2022-11-15T13:22:44;13.30;1.00
336;DHT22;156;48.738;9.228;2022-11-15T13:25:37;13.30;1.00
336;DHT22;156;48.738;9.228;2022-11-15T13:28:18;13.20;1.00
336;DHT22;156;48.738;9.228;2022-11-15T13:30:50;13.30;1.00
336;DHT22;156;48.738;9.228;2022-11-15T13:33:20;13.30;1.00
336;DHT22;156;48.738;9.228;2022-11-15T13:35:49;13.20;1.00
336;DHT22;156;48.738;9.228;2022-11-15T13:38:19;13.20;1.00
336;DHT22;156;48.738;9.228;2022-11-15T13:40:54;13.10;1.00
336;DHT22;156;48.738;9.228;2022-11-15T13:43:33;13.10;1.00
336;DHT22;156;48.738;9.228;2022-11-15T13:46:12;13.10;1.00
336;DHT22;156;48.738;9.228;2022-11-15T13:48:40;13.10;1.00
336;DHT22;156;48.738;9.228;2022-11-15T13:51:15;13.10;1.00
336;DHT22;156;48.738;9.228;2022-11-15T13:53:45;13.20;1.00
336;DHT22;156;48.738;9.228;2022-11-15T13:56:15;13.10;1.00
336;DHT22;156;48.738;9.228;2022-11-15T13:58:43;13.10;1.00
336;DHT22;156;48.738;9.228;2022-11-15T14:01:15;13.00;1.00
336;DHT22;156;48.738;9.228;2022-11-15T14:03:50;13.00;1.00
336;DHT22;156;48.738;9.228;2022-11-15T14:06:20;13.00;1.00
336;DHT22;156;48.738;9.228;2022-11-15T14:09:04;12.90;1.00
336;DHT22;156;48.738;9.228;2022-11-15T14:11:32;12.90;1.00
336;DHT22;156;48.738;9.228;2022-11-15T14:14:08;12.80;1.00
336;DHT22;156;48.738;9.228;2022-11-15T14:16:40;12.60;1.00
336;DHT22;156;48.738;9.228;2022-11-15T14:19:11;12.60;1.00
336;DHT22;156;48.738;9.228;2022-11-15T14:24:43;12.40;1.00
336;DHT22;156;48.738;9.228;2022-11-15T14:27:23;12.30;1.00
336;DHT22;156;48.738;9.228;2022-11-15T14:29:50;12.30;1.00
336;DHT22;156;48.738;9.228;2022-11-15T14:32:19;12.20;5.00
336;DHT22;156;48.738;9.228;2022-11-15T14:34:47;12.20;7.30
336;DHT22;156;48.738;9.228;2022-11-15T14:37:22;12.30;8.90
336;DHT22;156;48.738;9.228;2022-11-15T14:39:50;12.60;1.00
336;DHT22;156;48.738;9.228;2022-11-15T14:42:20;12.60;1.00
336;DHT22;156;48.738;9.228;2022-11-15T14:44:48;12.60;1.00
336;DHT22;156;48.738;9.228;2022-11-15T14:47:15;12.50;1.00
336;DHT22;156;48.738;9.228;2022-11-15T14:49:42;12.50;1.00
336;DHT22;156;48.738;9.228;2022-11-15T14:52:26;12.50;1.00
336;DHT22;156;48.738;9.228;2022-11-15T14:54:54;12.50;1.00
336;DHT22;156;48.738;9.228;2022-11-15T14:57:23;12.50;1.00
336;DHT22;156;48.738;9.228;2022-11-15T14:59:50;12.60;1.00
336;DHT22;156;48.738;9.228;2022-11-15T15:02:21;12.50;1.00
336;DHT22;156;48.738;9.228;2022-11-15T15:04:48;12.50;1.00
336;DHT22;156;48.738;9.228;2022-11-15T15:07:16;12.50;1.00
336;DHT22;156;48.738;9.228;2022-11-15T15:09:44;12.50;1.00
336;DHT22;156;48.738;9.228;2022-11-15T15:12:23;12.50;1.00
336;DHT22;156;48.738;9.228;2022-11-15T15:14:50;12.40;1.00
336;DHT22;156;48.738;9.228;2022-11-15T15:17:17;12.40;1.00
336;DHT22;156;48.738;9.228;2022-11-15T15:19:44;12.40;1.00
336;DHT22;156;48.738;9.228;2022-11-15T15:22:14;12.40;1.00
336;DHT22;156;48.738;9.228;2022-11-15T15:24:41;12.30;1.00
336;DHT22;156;48.738;9.228;2022-11-15T15:27:08;12.20;1.00
336;DHT22;156;48.738;9.228;2022-11-15T15:29:37;12.20;1.00
336;DHT22;156;48.738;9.228;2022-11-15T15:32:04;12.10;1.00
336;DHT22;156;48.738;9.228;2022-11-15T15:34:31;12.20;1.00
336;DHT22;156;48.738;9.228;2022-11-15T15:37:12;12.10;1.00
336;DHT22;156;48.738;9.228;2022-11-15T15:39:45;12.00;1.00
336;DHT22;156;48.738;9.228;2022-11-15T15:42:12;11.90;2.30
336;DHT22;156;48.738;9.228;2022-11-15T15:44:40;11.80;3.00
336;DHT22;156;48.738;9.228;2022-11-15T15:47:10;11.80;6.50
336;DHT22;156;48.738;9.228;2022-11-15T15:49:38;11.80;8.10
336;DHT22;156;48.738;9.228;2022-11-15T15:52:05;11.90;6.80
336;DHT22;156;48.738;9.228;2022-11-15T15:54:32;11.90;6.50
336;DHT22;156;48.738;9.228;2022-11-15T15:56:58;12.00;6.10
336;DHT22;156;48.738;9.228;2022-11-15T15:59:25;12.00;4.30
336;DHT22;156;48.738;9.228;2022-11-15T16:01:53;12.00;4.20
336;DHT22;156;48.738;9.228;2022-11-15T16:04:20;12.00;3.20
336;DHT22;156;48.738;9.228;2022-11-15T16:06:47;11.90;4.10
336;DHT22;156;48.738;9.228;2022-11-15T16:09:17;12.00;2.10
336;DHT22;156;48.738;9.228;2022-11-15T16:11:45;11.90;2.80
336;DHT22;156;48.738;9.228;2022-11-15T16:14:12;11.90;2.40
336;DHT22;156;48.738;9.228;2022-11-15T16:16:39;11.90;1.10
336;DHT22;156;48.738;9.228;2022-11-15T16:19:09;11.90;1.00
336;DHT22;156;48.738;9.228;2022-11-15T16:21:37;11.90;1.00
336;DHT22;156;48.738;9.228;2022-11-15T16:24:04;12.00;1.00
336;DHT22;156;48.738;9.228;2022-11-15T16:26:36;11.90;1.00
336;DHT22;156;48.738;9.228;2022-11-15T16:31:32;12.00;1.00
336;DHT22;156;48.738;9.228;2022-11-15T16:33:59;11.90;1.00
336;DHT22;156;48.738;9.228;2022-11-15T16:36:29;11.90;1.00
336;DHT22;156;48.738;9.228;2022-11-15T16:38:57;12.00;1.00
336;DHT22;156;48.738;9.228;2022-11-15T16:41:24;11.90;1.00
336;DHT22;156;48.738;9.228;2022-11-15T16:43:51;12.00;1.00
336;DHT22;156;48.738;9.228;2022-11-15T16:46:20;12.00;1.00
336;DHT22;156;48.738;9.228;2022-11-15T16:48:48;11.80;1.70
336;DHT22;156;48.738;9.228;2022-11-15T16:51:15;11.80;2.20
336;DHT22;156;48.738;9.228;2022-11-15T16:53:44;11.80;5.00
336;DHT22;156;48.738;9.228;2022-11-15T16:56:18;11.80;3.10
336;DHT22;156;48.738;9.228;2022-11-15T16:58:46;12.00;1.60
336;DHT22;156;48.738;9.228;2022-11-15T17:01:17;11.90;1.10
336;DHT22;156;48.738;9.228;2022-11-15T17:03:44;11.90;1.00
336;DHT22;156;48.738;9.228;2022-11-15T17:06:12;12.00;1.00
336;DHT22;156;48.738;9.228;2022-11-15T17:08:40;12.00;1.00
336;DHT22;156;48.738;9.228;2022-11-15T17:11:08;12.00;1.00
336;DHT22;156;48.738;9.228;2022-11-15T17:13:35;12.00;1.00
336;DHT22;156;48.738;9.228;2022-11-15T17:16:07;11.90;1.00
336;DHT22;156;48.738;9.228;2022-11-15T17:18:34;12.00;1.00
336;DHT22;156;48.738;9.228;2022-11-15T17:21:06;12.00;1.00
336;DHT22;156;48.738;9.228;2022-11-15T17:23:33;12.00;1.00
336;DHT22;156;48.738;9.228;2022-11-15T17:26:01;12.10;1.00
336;DHT22;156;48.738;9.228;2022-11-15T17:28:31;12.10;1.00
336;DHT22;156;48.738;9.228;2022-11-15T17:30:58;12.00;1.00
336;DHT22;156;48.738;9.228;2022-11-15T17:33:26;11.90;1.00
336;DHT22;156;48.738;9.228;2022-11-15T17:35:56;11.90;1.00
336;DHT22;156;48.738;9.228;2022-11-15T17:38:23;11.80;1.00
336;DHT22;156;48.738;9.228;2022-11-15T17:40:59;11.90;1.00